createdAt,value
2022-11-10T00:00:38.167Z,12.27
2022-11-10T00:03:08.227Z,12.21
2022-11-10T00:05:37.644Z,12.21
2022-11-10T00:08:11.375Z,12.20
2022-11-10T00:10:55.773Z,12.20
2022-11-10T00:13:24.705Z,12.20
2022-11-10T00:16:10.412Z,12.18
2022-11-10T00:18:38.537Z,12.18
2022-11-10T00:21:07.841Z,12.16
2022-11-10T00:23:36.264Z,12.13
2022-11-10T00:26:05.689Z,12.12
2022-11-10T00:28:33.805Z,12.15
2022-11-10T00:31:06.265Z,12.12
2022-11-10T00:33:36.321Z,12.11
2022-11-10T00:36:04.930Z,12.11
2022-11-10T00:38:32.724Z,12.11
2022-11-10T00:41:01.197Z,12.10
2022-11-10T00:43:31.806Z,12.11
2022-11-10T00:46:00.631Z,12.10
2022-11-10T00:48:28.451Z,12.07
2022-11-10T00:50:57.161Z,12.06
2022-11-10T00:53:25.293Z,12.04
2022-11-10T00:55:53.287Z,12.03
2022-11-10T00:58:21.206Z,12.03
2022-11-10T01:00:50.622Z,12.01
2022-11-10T01:03:19.990Z,12.01
2022-11-10T01:05:48.429Z,12.00
2022-11-10T01:08:16.216Z,12.00
2022-11-10T01:10:44.083Z,11.98
2022-11-10T01:13:12.223Z,11.98
2022-11-10T01:15:41.116Z,12.02
2022-11-10T01:18:10.635Z,12.06
2022-11-10T01:20:38.906Z,12.06
2022-11-10T01:23:06.916Z,12.06
2022-11-10T01:25:34.740Z,12.06
2022-11-10T01:28:02.625Z,12.10
2022-11-10T01:30:30.607Z,12.11
2022-11-10T01:32:58.379Z,12.12
2022-11-10T01:35:27.580Z,12.10
2022-11-10T01:37:55.726Z,12.11
2022-11-10T01:40:23.563Z,12.11
2022-11-10T01:42:53.231Z,12.07
2022-11-10T01:45:50.343Z,12.04
2022-11-10T01:48:23.887Z,12.02
2022-11-10T01:50:53.230Z,12.02
2022-11-10T01:53:28.707Z,11.92
2022-11-10T01:55:58.141Z,12.00
2022-11-10T01:58:30.596Z,12.02
2022-11-10T02:00:58.579Z,12.00
2022-11-10T02:03:38.188Z,12.00
2022-11-10T02:06:08.260Z,11.99
2022-11-10T02:08:37.342Z,11.97
2022-11-10T02:11:05.260Z,11.97
2022-11-10T02:13:33.249Z,11.96
2022-11-10T02:16:02.393Z,11.90
2022-11-10T02:18:30.364Z,11.87
2022-11-10T02:20:59.601Z,11.80
2022-11-10T02:23:46.775Z,11.75
2022-11-10T02:26:17.345Z,11.78
2022-11-10T02:28:45.453Z,11.73
2022-11-10T02:31:13.534Z,11.71
2022-11-10T02:33:41.452Z,11.66
2022-11-10T02:36:10.924Z,11.67
2022-11-10T02:38:38.914Z,11.64
2022-11-10T02:41:07.271Z,11.61
2022-11-10T02:43:37.684Z,11.61
2022-11-10T02:46:06.040Z,11.62
2022-11-10T02:48:33.769Z,11.59
2022-11-10T02:51:03.821Z,11.58
2022-11-10T02:53:33.134Z,11.59
2022-11-10T02:56:01.383Z,11.59
2022-11-10T02:58:29.219Z,11.61
2022-11-10T03:00:57.246Z,11.59
2022-11-10T03:03:25.266Z,11.58
2022-11-10T03:05:53.349Z,11.54
2022-11-10T03:08:21.126Z,11.53
2022-11-10T03:10:57.322Z,11.54
2022-11-10T03:13:32.072Z,11.53
2022-11-10T03:16:08.382Z,11.50
2022-11-10T03:18:36.194Z,11.51
2022-11-10T03:21:04.038Z,11.51
2022-11-10T03:23:31.795Z,11.52
2022-11-10T03:26:01.039Z,11.54
2022-11-10T03:28:28.778Z,11.52
2022-11-10T03:30:56.646Z,11.49
2022-11-10T03:33:24.889Z,11.45
2022-11-10T03:35:53.046Z,11.46
2022-11-10T03:38:20.967Z,11.45
2022-11-10T03:41:17.682Z,11.42
2022-11-10T03:43:40.510Z,11.42
2022-11-10T03:46:08.426Z,11.38
2022-11-10T03:48:36.506Z,11.38
2022-11-10T03:51:04.462Z,11.42
2022-11-10T03:53:32.299Z,11.43
2022-11-10T03:56:02.219Z,11.47
2022-11-10T03:58:30.028Z,11.49
2022-11-10T04:00:59.448Z,11.50
2022-11-10T04:03:27.406Z,11.51
2022-11-10T04:06:12.881Z,11.50
2022-11-10T04:08:58.176Z,11.48
2022-11-10T04:11:43.651Z,11.48
2022-11-10T04:14:29.135Z,11.46
2022-11-10T04:16:58.939Z,11.48
2022-11-10T04:19:27.095Z,11.50
2022-11-10T04:21:54.856Z,11.51
2022-11-10T04:24:22.895Z,11.53
2022-11-10T04:26:50.844Z,11.52
2022-11-10T04:29:20.124Z,11.55
2022-11-10T04:31:48.171Z,11.55
2022-11-10T04:34:17.349Z,11.55
2022-11-10T04:36:46.008Z,11.54
2022-11-10T04:39:14.170Z,11.55
2022-11-10T04:41:42.174Z,11.54
2022-11-10T04:44:10.083Z,11.51
2022-11-10T04:46:39.792Z,11.47
2022-11-10T04:49:09.021Z,11.42
2022-11-10T04:51:40.267Z,11.41
2022-11-10T04:54:09.097Z,11.39
2022-11-10T04:56:37.197Z,11.37
2022-11-10T04:59:05.371Z,11.35
2022-11-10T05:01:33.150Z,11.34
2022-11-10T05:04:01.168Z,11.34
2022-11-10T05:06:29.552Z,11.34
2022-11-10T05:08:58.896Z,11.33
2022-11-10T05:11:26.747Z,11.32
2022-11-10T05:13:56.672Z,11.27
2022-11-10T05:16:24.757Z,11.29
2022-11-10T05:18:56.041Z,11.27
2022-11-10T05:21:23.924Z,11.27
2022-11-10T05:23:52.045Z,11.27
2022-11-10T05:26:22.552Z,11.27
2022-11-10T05:28:50.426Z,11.26
2022-11-10T05:31:18.682Z,11.28
2022-11-10T05:33:46.479Z,11.25
2022-11-10T05:36:14.273Z,11.20
2022-11-10T05:38:43.840Z,11.17
2022-11-10T05:41:12.025Z,11.16
2022-11-10T05:43:41.195Z,11.15
2022-11-10T05:46:09.280Z,11.12
2022-11-10T05:48:37.329Z,11.12
2022-11-10T05:51:05.261Z,11.07
2022-11-10T05:53:33.101Z,11.03
2022-11-10T05:56:01.171Z,11.02
2022-11-10T05:58:29.163Z,10.99
2022-11-10T06:00:58.418Z,11.00
2022-11-10T06:03:26.883Z,10.99
2022-11-10T06:05:55.184Z,10.98
2022-11-10T06:08:22.944Z,10.98
2022-11-10T06:10:50.764Z,11.00
2022-11-10T06:13:18.765Z,10.96
2022-11-10T06:15:50.361Z,10.93
2022-11-10T06:18:19.961Z,10.93
2022-11-10T06:20:48.386Z,10.92
2022-11-10T06:23:17.151Z,10.92
2022-11-10T06:25:45.779Z,10.91
2022-11-10T06:28:14.823Z,10.91
2022-11-10T06:30:42.981Z,10.89
2022-11-10T06:33:10.914Z,10.89
2022-11-10T06:35:40.588Z,10.90
2022-11-10T06:38:11.233Z,10.90
2022-11-10T06:40:39.060Z,10.92
2022-11-10T06:43:06.842Z,10.94
2022-11-10T06:45:34.655Z,10.97
2022-11-10T06:48:03.959Z,10.97
2022-11-10T06:50:32.051Z,10.97
2022-11-10T06:53:02.100Z,10.99
2022-11-10T06:55:30.982Z,11.01
2022-11-10T06:57:58.985Z,11.00
2022-11-10T07:00:28.164Z,11.02
2022-11-10T07:03:03.466Z,11.02
2022-11-10T07:05:32.093Z,11.08
2022-11-10T07:08:05.026Z,11.10
2022-11-10T07:10:34.036Z,11.09
2022-11-10T07:13:03.708Z,11.10
2022-11-10T07:15:33.672Z,11.12
2022-11-10T07:18:02.577Z,11.15
2022-11-10T07:20:30.817Z,11.16
2022-11-10T07:23:00.426Z,11.16
2022-11-10T07:25:31.202Z,11.17
2022-11-10T07:28:00.555Z,11.16
2022-11-10T07:30:29.398Z,11.22
2022-11-10T07:33:02.029Z,11.26
2022-11-10T07:35:30.274Z,11.33
2022-11-10T07:37:59.126Z,11.38
2022-11-10T07:40:27.055Z,11.40
2022-11-10T07:42:56.671Z,11.40
2022-11-10T07:45:24.550Z,11.38
2022-11-10T07:47:52.761Z,11.33
2022-11-10T07:50:20.734Z,11.34
2022-11-10T07:52:48.897Z,11.29
2022-11-10T07:55:16.831Z,11.32
2022-11-10T07:57:44.801Z,11.32
2022-11-10T08:00:15.642Z,11.30
2022-11-10T08:02:43.400Z,11.29
2022-11-10T08:05:11.164Z,11.29
2022-11-10T08:07:39.022Z,11.32
2022-11-10T08:10:07.833Z,11.34
2022-11-10T08:12:35.652Z,11.37
2022-11-10T08:15:03.625Z,11.37
2022-11-10T08:17:33.076Z,11.41
2022-11-10T08:20:00.919Z,11.43
2022-11-10T08:22:28.813Z,11.44
2022-11-10T08:24:56.932Z,11.43
2022-11-10T08:27:24.782Z,11.49
2022-11-10T08:29:52.566Z,11.51
2022-11-10T08:32:21.223Z,11.52
2022-11-10T08:34:50.711Z,11.55
2022-11-10T08:37:18.730Z,11.58
2022-11-10T08:39:46.515Z,11.60
2022-11-10T08:42:14.645Z,11.62
2022-11-10T08:44:42.598Z,11.68
2022-11-10T08:47:10.413Z,11.71
2022-11-10T08:49:38.361Z,11.74
2022-11-10T08:52:07.539Z,11.77
2022-11-10T08:54:35.477Z,11.80
2022-11-10T08:57:03.338Z,11.85
2022-11-10T08:59:31.134Z,11.90
2022-11-10T09:01:59.461Z,11.97
2022-11-10T09:04:27.680Z,12.01
2022-11-10T09:06:57.749Z,12.05
2022-11-10T09:09:27.554Z,12.10
2022-11-10T09:11:55.407Z,12.17
2022-11-10T09:14:23.497Z,12.24
2022-11-10T09:16:51.285Z,12.35
2022-11-10T09:19:20.181Z,12.45
2022-11-10T09:21:48.213Z,12.52
2022-11-10T09:24:16.219Z,12.59
2022-11-10T09:26:47.663Z,12.70
2022-11-10T09:29:15.751Z,12.75
2022-11-10T09:31:44.810Z,12.83
2022-11-10T09:34:13.243Z,12.88
2022-11-10T09:36:41.289Z,12.93
2022-11-10T09:39:09.297Z,13.01
2022-11-10T09:41:41.698Z,13.08
2022-11-10T09:44:17.322Z,13.15
2022-11-10T09:46:49.525Z,13.22
2022-11-10T09:49:29.675Z,13.24
2022-11-10T09:51:59.708Z,13.33
2022-11-10T09:54:38.275Z,13.38
2022-11-10T09:57:08.514Z,13.46
2022-11-10T09:59:38.347Z,13.53
2022-11-10T10:02:15.005Z,13.59
2022-11-10T10:05:19.192Z,13.63
2022-11-10T10:07:54.830Z,13.72
2022-11-10T10:10:30.655Z,13.75
2022-11-10T10:13:09.434Z,13.77
2022-11-10T10:15:46.011Z,13.81
2022-11-10T10:18:29.404Z,13.84
2022-11-10T10:21:14.071Z,13.92
2022-11-10T10:24:08.617Z,13.93
2022-11-10T10:26:40.727Z,13.95
2022-11-10T10:29:11.938Z,14.02
2022-11-10T10:31:47.031Z,14.02
2022-11-10T10:34:17.406Z,14.06
2022-11-10T10:36:45.683Z,14.14
2022-11-10T10:39:16.979Z,14.22
2022-11-10T10:41:47.242Z,14.26
2022-11-10T10:44:17.517Z,14.28
2022-11-10T10:46:52.137Z,14.30
2022-11-10T10:49:28.571Z,14.33
2022-11-10T10:52:05.892Z,14.33
2022-11-10T10:54:35.609Z,14.37
2022-11-10T10:57:08.092Z,14.42
2022-11-10T10:59:36.160Z,14.44
2022-11-10T11:02:05.339Z,14.46
2022-11-10T11:04:35.214Z,14.49
2022-11-10T11:07:05.764Z,14.49
2022-11-10T11:09:41.680Z,14.52
2022-11-10T11:12:13.431Z,14.55
2022-11-10T11:14:45.851Z,14.58
2022-11-10T11:17:20.219Z,14.61
2022-11-10T11:19:57.078Z,14.70
2022-11-10T11:22:46.965Z,14.70
2022-11-10T11:25:23.919Z,14.72
2022-11-10T11:28:03.719Z,14.75
2022-11-10T11:30:44.245Z,14.79
2022-11-10T11:33:32.322Z,14.80
2022-11-10T11:36:09.889Z,14.87
2022-11-10T11:38:51.341Z,14.91
2022-11-10T11:41:31.530Z,14.95
2022-11-10T11:44:16.637Z,15.01
2022-11-10T11:46:54.728Z,15.02
2022-11-10T11:49:42.787Z,15.05
2022-11-10T11:52:22.232Z,15.10
2022-11-10T11:55:07.066Z,15.14
2022-11-10T11:57:46.763Z,15.21
2022-11-10T12:00:16.520Z,15.24
2022-11-10T12:03:07.912Z,15.22
2022-11-10T12:05:53.130Z,15.26
2022-11-10T12:08:34.083Z,15.27
2022-11-10T12:11:11.697Z,15.26
2022-11-10T12:13:53.034Z,15.31
2022-11-10T12:16:27.092Z,15.35
2022-11-10T12:19:04.561Z,15.34
2022-11-10T12:21:43.177Z,15.36
2022-11-10T12:24:43.736Z,15.37
2022-11-10T12:27:15.894Z,15.44
2022-11-10T12:29:48.577Z,15.44
2022-11-10T12:32:23.386Z,15.46
2022-11-10T12:34:56.088Z,15.45
2022-11-10T12:37:33.624Z,15.47
2022-11-10T12:40:07.123Z,15.49
2022-11-10T12:42:39.144Z,15.50
2022-11-10T12:45:08.818Z,15.53
2022-11-10T12:47:42.449Z,15.52
2022-11-10T12:50:43.389Z,15.45
2022-11-10T12:53:23.747Z,15.47
2022-11-10T12:55:59.023Z,15.51
2022-11-10T12:58:27.681Z,15.50
2022-11-10T13:00:58.857Z,15.50
2022-11-10T13:03:31.579Z,15.50
2022-11-10T13:06:03.558Z,15.52
2022-11-10T13:08:40.404Z,15.50
2022-11-10T13:11:24.567Z,15.44
2022-11-10T13:13:59.297Z,15.44
2022-11-10T13:16:54.179Z,15.42
2022-11-10T13:19:53.948Z,15.46
2022-11-10T13:22:33.871Z,15.48
2022-11-10T13:25:39.180Z,15.46
2022-11-10T13:28:09.640Z,15.47
2022-11-10T13:30:40.170Z,15.51
2022-11-10T13:33:32.051Z,15.47
2022-11-10T13:36:00.002Z,15.52
2022-11-10T13:38:46.090Z,15.48
2022-11-10T13:41:21.008Z,15.54
2022-11-10T13:43:51.880Z,15.52
2022-11-10T13:46:20.717Z,15.53
2022-11-10T13:49:15.348Z,15.49
2022-11-10T13:51:51.743Z,15.52
2022-11-10T13:54:41.522Z,15.51
2022-11-10T13:57:25.221Z,15.54
2022-11-10T13:59:57.001Z,15.60
2022-11-10T14:02:47.272Z,15.62
2022-11-10T14:06:02.390Z,15.66
2022-11-10T14:08:44.432Z,15.70
2022-11-10T14:11:22.113Z,15.72
2022-11-10T14:13:55.699Z,15.73
2022-11-10T14:16:27.017Z,15.73
2022-11-10T14:19:02.897Z,15.71
2022-11-10T14:21:37.482Z,15.71
2022-11-10T14:24:15.460Z,15.69
2022-11-10T14:26:46.228Z,15.71
2022-11-10T14:29:34.605Z,15.66
2022-11-10T14:32:06.736Z,15.69
2022-11-10T14:34:45.643Z,15.68
2022-11-10T14:37:20.768Z,15.65
2022-11-10T14:39:49.085Z,15.67
2022-11-10T14:42:23.247Z,15.67
2022-11-10T14:44:51.394Z,15.68
2022-11-10T14:47:28.816Z,15.65
2022-11-10T14:50:18.080Z,15.63
2022-11-10T14:52:49.199Z,15.66
2022-11-10T14:55:20.878Z,15.64
2022-11-10T14:57:51.354Z,15.62
2022-11-10T15:00:25.252Z,15.60
2022-11-10T15:02:56.947Z,15.58
2022-11-10T15:05:26.289Z,15.56
2022-11-10T15:07:56.662Z,15.53
2022-11-10T15:10:27.302Z,15.49
2022-11-10T15:13:04.425Z,15.48
2022-11-10T15:15:32.406Z,15.45
2022-11-10T15:18:01.775Z,15.43
2022-11-10T15:20:40.965Z,15.39
2022-11-10T15:23:23.337Z,15.33
2022-11-10T15:25:53.301Z,15.35
2022-11-10T15:28:30.551Z,15.29
2022-11-10T15:31:01.178Z,15.30
2022-11-10T15:33:34.137Z,15.26
2022-11-10T15:36:17.339Z,15.19
2022-11-10T15:38:45.457Z,15.18
2022-11-10T15:41:15.982Z,15.16
2022-11-10T15:43:43.916Z,15.12
2022-11-10T15:46:18.615Z,15.10
2022-11-10T15:48:50.205Z,15.08
2022-11-10T15:51:25.691Z,15.03
2022-11-10T15:53:55.120Z,15.01
2022-11-10T15:56:25.376Z,15.00
2022-11-10T15:59:00.583Z,14.97
2022-11-10T16:01:32.763Z,14.96
2022-11-10T16:04:02.099Z,14.96
2022-11-10T16:06:30.744Z,14.92
2022-11-10T16:08:58.994Z,14.91
2022-11-10T16:11:27.457Z,14.87
2022-11-10T16:13:56.400Z,14.85
2022-11-10T16:16:24.616Z,14.81
2022-11-10T16:18:52.582Z,14.79
2022-11-10T16:21:23.286Z,14.77
2022-11-10T16:23:51.449Z,14.74
2022-11-10T16:26:23.304Z,14.71
2022-11-10T16:28:51.692Z,14.68
2022-11-10T16:31:21.939Z,14.65
2022-11-10T16:33:50.997Z,14.61
2022-11-10T16:36:25.936Z,14.61
2022-11-10T16:38:54.234Z,14.60
2022-11-10T16:41:23.540Z,14.61
2022-11-10T16:43:51.855Z,14.57
2022-11-10T16:46:21.591Z,14.57
2022-11-10T16:48:50.937Z,14.58
2022-11-10T16:51:19.146Z,14.55
2022-11-10T16:53:48.955Z,14.53
2022-11-10T16:56:20.573Z,14.50
2022-11-10T16:58:48.358Z,14.42
2022-11-10T17:01:21.975Z,14.40
2022-11-10T17:03:53.827Z,14.40
2022-11-10T17:06:24.382Z,14.41
2022-11-10T17:08:57.348Z,14.41
2022-11-10T17:11:25.180Z,14.38
2022-11-10T17:13:53.244Z,14.38
2022-11-10T17:16:26.835Z,14.38
2022-11-10T17:18:56.321Z,14.36
2022-11-10T17:21:32.498Z,14.32
2022-11-10T17:24:03.109Z,14.29
2022-11-10T17:26:31.917Z,14.26
2022-11-10T17:28:59.752Z,14.27
2022-11-10T17:31:27.574Z,14.23
2022-11-10T17:33:55.362Z,14.20
2022-11-10T17:36:24.511Z,14.16
2022-11-10T17:38:53.023Z,14.14
2022-11-10T17:41:22.269Z,14.09
2022-11-10T17:43:50.075Z,14.04
2022-11-10T17:46:17.904Z,14.01
2022-11-10T17:48:47.627Z,13.98
2022-11-10T17:51:20.549Z,13.96
2022-11-10T17:53:50.574Z,13.94
2022-11-10T17:56:18.743Z,13.91
2022-11-10T17:58:47.965Z,13.89
2022-11-10T18:01:22.408Z,13.87
2022-11-10T18:03:51.546Z,13.84
2022-11-10T18:06:21.326Z,13.80
2022-11-10T18:08:49.336Z,13.79
2022-11-10T18:11:19.305Z,13.76
2022-11-10T18:13:48.477Z,13.72
2022-11-10T18:16:16.291Z,13.69
2022-11-10T18:18:44.171Z,13.66
2022-11-10T18:21:14.206Z,13.64
2022-11-10T18:23:44.273Z,13.62
2022-11-10T18:26:12.500Z,13.61
2022-11-10T18:28:42.100Z,13.61
2022-11-10T18:31:13.127Z,13.59
2022-11-10T18:33:41.501Z,13.57
2022-11-10T18:36:10.094Z,13.56
2022-11-10T18:38:38.020Z,13.51
2022-11-10T18:41:21.075Z,13.53
2022-11-10T18:43:48.825Z,13.47
2022-11-10T18:46:18.203Z,13.38
2022-11-10T18:48:46.502Z,13.42
2022-11-10T18:51:14.910Z,13.39
2022-11-10T18:53:42.665Z,13.36
2022-11-10T18:56:10.471Z,13.35
2022-11-10T18:58:38.492Z,13.31
2022-11-10T19:01:08.221Z,13.27
2022-11-10T19:03:38.180Z,13.24
2022-11-10T19:06:06.629Z,13.23
2022-11-10T19:08:34.564Z,13.20
2022-11-10T19:11:06.143Z,13.20
2022-11-10T19:13:35.465Z,13.19
2022-11-10T19:16:05.782Z,13.21
2022-11-10T19:18:33.541Z,13.19
2022-11-10T19:21:06.929Z,13.15
2022-11-10T19:23:35.126Z,13.14
2022-11-10T19:26:03.720Z,13.14
2022-11-10T19:28:32.147Z,13.13
2022-11-10T19:31:03.437Z,13.12
2022-11-10T19:33:32.236Z,13.12
2022-11-10T19:36:03.806Z,13.15
2022-11-10T19:38:33.205Z,13.16
2022-11-10T19:41:05.345Z,13.13
2022-11-10T19:43:33.184Z,13.10
2022-11-10T19:46:03.955Z,13.08
2022-11-10T19:48:32.522Z,13.04
2022-11-10T19:51:01.870Z,13.07
2022-11-10T19:53:30.347Z,13.06
2022-11-10T19:56:03.088Z,13.06
2022-11-10T19:58:31.415Z,13.05
2022-11-10T20:01:01.930Z,13.06
2022-11-10T20:03:30.112Z,13.08
2022-11-10T20:06:03.070Z,13.04
2022-11-10T20:08:31.165Z,13.06
2022-11-10T20:11:05.446Z,13.03
2022-11-10T20:13:33.401Z,13.02
2022-11-10T20:16:04.500Z,12.99
2022-11-10T20:18:34.551Z,12.95
2022-11-10T20:21:06.101Z,12.93
2022-11-10T20:23:34.104Z,12.88
2022-11-10T20:26:09.053Z,12.80
2022-11-10T20:28:39.415Z,12.80
2022-11-10T20:31:10.040Z,12.77
2022-11-10T20:33:38.382Z,12.71
2022-11-10T20:36:09.377Z,12.70
2022-11-10T20:38:37.482Z,12.68
2022-11-10T20:41:10.410Z,12.67
2022-11-10T20:43:39.593Z,12.65
2022-11-10T20:46:09.185Z,12.62
2022-11-10T20:48:37.194Z,12.57
2022-11-10T20:51:09.867Z,12.53
2022-11-10T20:53:38.239Z,12.52
2022-11-10T20:56:08.496Z,12.49
2022-11-10T20:58:36.365Z,12.43
2022-11-10T21:01:09.096Z,12.39
2022-11-10T21:03:37.601Z,12.38
2022-11-10T21:06:07.545Z,12.36
2022-11-10T21:08:36.023Z,12.37
2022-11-10T21:11:11.051Z,12.31
2022-11-10T21:13:40.266Z,12.30
2022-11-10T21:16:08.564Z,12.26
2022-11-10T21:18:37.676Z,12.17
2022-11-10T21:21:06.016Z,12.14
2022-11-10T21:23:33.824Z,12.12
2022-11-10T21:26:02.304Z,12.14
2022-11-10T21:28:30.103Z,12.16
2022-11-10T21:31:05.476Z,12.04
2022-11-10T21:33:33.305Z,12.04
2022-11-10T21:36:06.804Z,12.03
2022-11-10T21:38:34.835Z,12.02
2022-11-10T21:41:02.782Z,11.98
2022-11-10T21:43:30.724Z,11.98
2022-11-10T21:45:58.911Z,11.95
2022-11-10T21:48:28.270Z,11.90
2022-11-10T21:51:00.690Z,11.89
2022-11-10T21:53:28.578Z,11.87
2022-11-10T21:55:59.091Z,11.87
2022-11-10T21:58:27.232Z,11.87
2022-11-10T22:01:01.677Z,11.85
2022-11-10T22:03:31.303Z,11.90
2022-11-10T22:06:04.954Z,11.90
2022-11-10T22:08:33.211Z,11.94
2022-11-10T22:11:18.583Z,11.94
2022-11-10T22:14:04.593Z,11.89
2022-11-10T22:16:52.937Z,11.89
2022-11-10T22:19:22.089Z,11.79
2022-11-10T22:21:50.035Z,11.80
2022-11-10T22:24:27.771Z,11.84
2022-11-10T22:26:57.155Z,11.85
2022-11-10T22:29:31.200Z,11.82
2022-11-10T22:31:59.974Z,11.83
2022-11-10T22:34:29.332Z,11.80
2022-11-10T22:36:59.434Z,11.81
2022-11-10T22:39:47.545Z,11.83
2022-11-10T22:42:32.902Z,11.73
2022-11-10T22:45:00.755Z,11.78
2022-11-10T22:47:48.931Z,11.81
2022-11-10T22:50:18.104Z,11.77
2022-11-10T22:52:45.992Z,11.75
2022-11-10T22:55:13.956Z,11.75
2022-11-10T22:57:41.755Z,11.77
2022-11-10T23:00:10.890Z,11.76
2022-11-10T23:02:38.720Z,11.75
2022-11-10T23:05:07.295Z,11.71
2022-11-10T23:07:36.482Z,11.66
2022-11-10T23:10:05.546Z,11.65
2022-11-10T23:12:33.631Z,11.64
2022-11-10T23:15:01.521Z,11.62
2022-11-10T23:17:29.415Z,11.57
2022-11-10T23:19:57.205Z,11.56
2022-11-10T23:22:25.056Z,11.55
2022-11-10T23:24:57.503Z,11.52
2022-11-10T23:27:25.479Z,11.51
2022-11-10T23:29:53.179Z,11.52
2022-11-10T23:32:21.026Z,11.50
2022-11-10T23:34:48.784Z,11.49
2022-11-10T23:37:16.538Z,11.43
2022-11-10T23:39:44.437Z,11.39
2022-11-10T23:42:13.665Z,11.36
2022-11-10T23:44:41.498Z,11.37
2022-11-10T23:47:09.326Z,11.35
2022-11-10T23:49:37.104Z,11.30
2022-11-10T23:52:05.249Z,11.31
2022-11-10T23:54:33.119Z,11.28
2022-11-10T23:57:01.302Z,11.26
2022-11-10T23:59:30.639Z,11.26
